BNE weather

Brisbane International Airport
Brisbane, Queensland, Australia

Public forecast

Using degrees Celsius for public forecast. Weather courtesy of forecast.io.

Current aviation weather report (METAR) for Brisbane International Airport

Retrieved 2019/10/22 12:30 UTC (0 seconds ago):

YBBN 221230Z 11004KT 9999 FEW030 19/15 Q1024 NOSIG

Aviation forecast (TAF) for Brisbane International Airport

Retrieved 2019/10/22 12:00 UTC (24 minutes ago):

TAF YBBN 221105Z 2212/2318 10005KT 9999 SCT025 FM221300 23006KT 9999 SCT025 FM222200 11010KT 9999 FEW030 FM230100 05013KT 9999 FEW040 FM230900 03008KT 9999 FEW035 FM231500 23006KT 9999 FEW030